Time;durP1;ratioP1;P1;durP2;ratioP2;P2;SDS_P1;SDS_P2;PMS_P1;PMS_P2;Temp;Humidity;BMP_temperature;BMP_pressure;BME280_temperature;BME280_humidity;BME280_pressure;Samples;Min_cycle;Max_cycle;Signal;HPM_P1;HPM_P2
2022/09/20 00:01:26;;;;;;;6.72;2.05;;;;;;;-148.22;100.00;64452.44;5012876;28;20081;-62
2022/09/20 00:03:56;;;;;;;4.50;2.10;;;;;;;-148.22;100.00;64452.44;5029941;28;20069;-63
2022/09/20 00:06:28;;;;;;;7.13;2.60;;;;;;;-148.22;100.00;64452.44;5011573;28;20133;-60
2022/09/20 00:08:55;;;;;;;6.70;2.30;;;;;;;-148.22;100.00;64452.44;5009810;28;20424;-60
2022/09/20 00:11:25;;;;;;;5.47;2.10;;;;;;;-148.22;100.00;64452.44;5013488;28;20584;-64
2022/09/20 00:13:53;;;;;;;5.25;1.90;;;;;;;-148.22;100.00;64452.44;5023694;28;20052;-63
2022/09/20 00:16:24;;;;;;;3.42;1.50;;;;;;;-148.22;100.00;64452.44;5026574;28;20042;-63
2022/09/20 00:18:52;;;;;;;5.65;2.33;;;;;;;-148.22;100.00;64452.44;5024130;28;20042;-63
2022/09/20 00:21:22;;;;;;;6.40;2.08;;;;;;;-148.22;100.00;64452.44;5009422;28;19964;-61
2022/09/20 00:23:50;;;;;;;4.43;1.92;;;;;;;-148.22;100.00;64452.44;5028881;28;20120;-61
2022/09/20 00:26:17;;;;;;;6.75;2.72;;;;;;;-148.22;100.00;64452.44;5011906;28;20054;-61
2022/09/20 00:28:45;;;;;;;6.57;2.17;;;;;;;-148.22;100.00;64452.44;5020342;28;20046;-62
2022/09/20 00:31:13;;;;;;;7.70;2.83;;;;;;;-148.22;100.00;64452.44;5012874;28;20121;-63
2022/09/20 00:36:26;;;;;;;9.55;1.95;;;;;;;-148.22;100.00;64452.44;5026249;28;20151;-62
2022/09/20 00:38:57;;;;;;;4.43;1.95;;;;;;;-148.22;100.00;64452.44;5029119;28;20038;-64
2022/09/20 00:41:24;;;;;;;4.35;2.20;;;;;;;-148.22;100.00;64452.44;5028231;28;20053;-62
2022/09/20 00:43:51;;;;;;;5.75;2.05;;;;;;;-148.22;100.00;64452.44;5045665;28;20041;-62
2022/09/20 00:46:31;;;;;;;5.35;2.03;;;;;;;-148.22;100.00;64452.44;5025249;28;20469;-62
2022/09/20 00:49:13;;;;;;;5.97;1.98;;;;;;;-148.22;100.00;64452.44;5010568;28;20137;-60
2022/09/20 00:51:42;;;;;;;;;;;;;;;-148.22;100.00;64452.44;5022942;28;20124;-61
2022/09/20 00:54:11;;;;;;;4.65;1.63;;;;;;;-148.22;100.00;64452.44;5023314;28;19921;-62
2022/09/20 00:56:42;;;;;;;6.07;2.20;;;;;;;-148.22;100.00;64452.44;5028558;28;20201;-62
2022/09/20 00:59:29;;;;;;;6.25;1.90;;;;;;;-148.22;100.00;64452.44;5023828;28;20073;-62
2022/09/20 01:02:04;;;;;;;3.78;1.73;;;;;;;-148.22;100.00;64452.44;5008370;28;20050;-62
2022/09/20 01:04:33;;;;;;;9.13;2.00;;;;;;;-148.22;100.00;64452.44;5015267;28;20080;-62
2022/09/20 01:07:03;;;;;;;5.57;1.87;;;;;;;-148.22;100.00;64452.44;5017195;28;20796;-62
2022/09/20 01:09:30;;;;;;;4.80;1.90;;;;;;;-148.22;100.00;64452.44;5013010;28;20049;-62
2022/09/20 01:12:01;;;;;;;5.63;2.03;;;;;;;-148.22;100.00;64452.44;5033732;28;20403;-62
2022/09/20 01:14:27;;;;;;;7.22;1.80;;;;;;;-148.22;100.00;64452.44;5028690;28;20038;-63
2022/09/20 01:16:56;;;;;;;8.35;2.20;;;;;;;-148.22;100.00;64452.44;5027868;28;20041;-63
2022/09/20 01:19:37;;;;;;;5.00;1.85;;;;;;;-148.22;100.00;64452.44;5013205;28;20041;-62
2022/09/20 01:22:17;;;;;;;7.50;1.92;;;;;;;-148.22;100.00;64452.44;5015368;28;20477;-63
2022/09/20 01:24:55;;;;;;;6.85;1.85;;;;;;;-148.22;100.00;64452.44;5015818;28;20041;-63
2022/09/20 01:27:46;;;;;;;5.25;2.10;;;;;;;-148.22;100.00;64452.44;5016764;28;20095;-62
2022/09/20 01:30:17;;;;;;;;;;;;;;;-148.22;100.00;64452.44;5033305;28;20534;-61
2022/09/20 01:33:02;;;;;;;;;;;;;;;-148.22;100.00;64452.44;5034570;28;20508;-63
2022/09/20 01:35:31;;;;;;;;;;;;;;;-148.22;100.00;64452.44;5010213;28;19928;-62
2022/09/20 01:38:10;;;;;;;;;;;;;;;-148.22;100.00;64452.44;5016084;28;20023;-62
2022/09/20 01:40:37;;;;;;;;;;;;;;;-148.22;100.00;64452.44;5024917;28;20553;-62
2022/09/20 01:43:12;;;;;;;;;;;;;;;-148.22;100.00;64452.44;5028472;28;19921;-62
2022/09/20 01:45:43;;;;;;;;;;;;;;;-148.22;100.00;64452.44;5008424;28;19925;-62
2022/09/20 01:48:22;;;;;;;;;;;;;;;-148.22;100.00;64452.44;5022091;28;20308;-62
2022/09/20 01:51:08;;;;;;;;;;;;;;;-148.22;100.00;64452.44;5007207;28;20499;-63
2022/09/20 01:53:34;;;;;;;;;;;;;;;-148.22;100.00;64452.44;5024469;28;19921;-64
2022/09/20 01:56:19;;;;;;;;;;;;;;;-148.22;100.00;64452.44;5027488;28;20368;-63
2022/09/20 01:58:59;;;;;;;;;;;;;;;-148.22;100.00;64452.44;5020868;28;20068;-62
2022/09/20 02:02:06;;;;;;;;;;;;;;;-148.22;100.00;64452.44;5026084;28;19936;-62
2022/09/20 02:04:45;;;;;;;;;;;;;;;-148.22;100.00;64452.44;5017712;28;20019;-63
2022/09/20 02:07:18;;;;;;;;;;;;;;;-148.22;100.00;64452.44;5019308;28;19921;-63
2022/09/20 02:10:00;;;;;;;;;;;;;;;-148.22;100.00;64452.44;5007270;28;20511;-63
2022/09/20 02:12:35;;;;;;;;;;;;;;;-148.22;100.00;64452.44;5020577;28;20383;-62
2022/09/20 02:15:11;;;;;;;;;;;;;;;-148.22;100.00;64452.44;5013482;28;20019;-63
2022/09/20 02:17:44;;;;;;;;;;;;;;;-148.22;100.00;64452.44;5014387;28;20475;-61
2022/09/20 02:20:29;;;;;;;;;;;;;;;-148.22;100.00;64452.44;5027276;28;19925;-64
2022/09/20 02:23:16;;;;;;;;;;;;;;;-148.22;100.00;64452.44;5017039;28;19964;-61
2022/09/20 02:26:01;;;;;;;;;;;;;;;-148.22;100.00;64452.44;5017101;28;20017;-62
2022/09/20 02:28:48;;;;;;;;;;;;;;;-148.22;100.00;64452.44;5019586;28;20055;-61
2022/09/20 02:31:21;;;;;;;;;;;;;;;-148.22;100.00;64452.44;5026523;28;19927;-62
2022/09/20 02:34:01;;;;;;;;;;;;;;;-148.22;100.00;64452.44;5015765;28;19925;-62
2022/09/20 02:36:44;;;;;;;;;;;;;;;-148.22;100.00;64452.44;5027701;28;20610;-62
2022/09/20 02:39:10;;;;;;;;;;;;;;;-148.22;100.00;64452.44;5010078;28;20703;-61
2022/09/20 02:41:56;;;;;;;;;;;;;;;-148.22;100.00;64452.44;5012375;28;19964;-62
2022/09/20 02:44:41;;;;;;;;;;;;;;;-148.22;100.00;64452.44;5018385;28;19956;-61
2022/09/20 02:47:17;;;;;;;;;;;;;;;-148.22;100.00;64452.44;5007084;28;19921;-62
2022/09/20 02:50:07;;;;;;;;;;;;;;;-148.22;100.00;64452.44;5007531;28;20012;-61
2022/09/20 02:52:52;;;;;;;;;;;;;;;-148.22;100.00;64452.44;5008115;28;20331;-62
2022/09/20 02:55:19;;;;;;;;;;;;;;;-148.22;100.00;64452.44;5011046;28;20022;-64
2022/09/20 02:57:54;;;;;;;;;;;;;;;-148.22;100.00;64452.44;5009445;28;20012;-63
2022/09/20 03:00:23;;;;;;;;;;;;;;;-148.22;100.00;64452.44;5026897;28;20386;-62
2022/09/20 03:03:08;;;;;;;;;;;;;;;-148.22;100.00;64452.44;5023170;28;19922;-63
2022/09/20 03:05:52;;;;;;;;;;;;;;;-148.22;100.00;64452.44;5024334;28;20016;-60
2022/09/20 03:08:21;;;;;;;;;;;;;;;-148.22;100.00;64452.44;5019959;28;19932;-63
2022/09/20 03:10:55;;;;;;;;;;;;;;;-148.22;100.00;64452.44;5006153;28;19921;-63
2022/09/20 03:13:40;;;;;;;;;;;;;;;-148.22;100.00;64452.44;5034100;28;19929;-60
2022/09/20 03:16:15;;;;;;;;;;;;;;;-148.22;100.00;64452.44;5006853;28;20016;-61
2022/09/20 03:18:56;;;;;;;;;;;;;;;-148.22;100.00;64452.44;5015161;28;20591;-63
2022/09/20 03:21:31;;;;;;;;;;;;;;;-148.22;100.00;64452.44;5025713;28;20019;-62
2022/09/20 03:24:04;;;;;;;;;;;;;;;-148.22;100.00;64452.44;5024330;28;19928;-62
2022/09/20 03:26:39;;;;;;;;;;;;;;;-148.22;100.00;64452.44;5026755;28;20024;-62
2022/09/20 03:29:06;;;;;;;;;;;;;;;-148.22;100.00;64452.44;5015360;28;20004;-62
2022/09/20 03:31:32;;;;;;;;;;;;;;;-148.22;100.00;64452.44;5010918;28;19928;-60
2022/09/20 03:34:08;;;;;;;;;;;;;;;-148.22;100.00;64452.44;5018307;28;20022;-62
2022/09/20 03:36:53;;;;;;;;;;;;;;;-148.22;100.00;64452.44;5010802;28;20020;-62
2022/09/20 03:39:38;;;;;;;;;;;;;;;-148.22;100.00;64452.44;5026546;28;19924;-63
2022/09/20 03:42:12;;;;;;;;;;;;;;;-148.22;100.00;64452.44;5021066;28;19921;-62
2022/09/20 03:44:38;;;;;;;;;;;;;;;-148.22;100.00;64452.44;5032206;28;19956;-63
2022/09/20 03:47:24;;;;;;;;;;;;;;;-148.22;100.00;64452.44;5025732;28;19929;-60
2022/09/20 03:49:59;;;;;;;;;;;;;;;-148.22;100.00;64452.44;5012457;28;19925;-63
2022/09/20 03:52:41;;;;;;;;;;;;;;;-148.22;100.00;64452.44;5007092;28;19928;-62
2022/09/20 03:55:12;;;;;;;;;;;;;;;-148.22;100.00;64452.44;5025403;28;20031;-63
2022/09/20 03:57:48;;;;;;;;;;;;;;;-148.22;100.00;64452.44;5026396;28;20035;-63
2022/09/20 04:00:19;;;;;;;;;;;;;;;-148.22;100.00;64452.44;5012208;28;20012;-61
2022/09/20 04:03:04;;;;;;;;;;;;;;;-148.22;100.00;64452.44;5025653;28;20419;-63
2022/09/20 04:05:40;;;;;;;;;;;;;;;-148.22;100.00;64452.44;5024398;28;20431;-62
2022/09/20 04:08:24;;;;;;;;;;;;;;;-148.22;100.00;64452.44;5024573;28;19925;-63
2022/09/20 04:11:16;;;;;;;;;;;;;;;-148.22;100.00;64452.44;5007111;28;20016;-62
2022/09/20 04:14:04;;;;;;;5.10;1.90;;;;;;;-148.22;100.00;64452.44;5024973;28;19943;-63
2022/09/20 04:16:43;;;;;;;4.32;1.90;;;;;;;-148.22;100.00;64452.44;5019959;28;20034;-63
2022/09/20 04:19:43;;;;;;;6.25;2.70;;;;;;;-148.22;100.00;64452.44;5006042;28;20061;-62
2022/09/20 04:22:10;;;;;;;4.80;1.90;;;;;;;-148.22;100.00;64452.44;5014421;28;20771;-61
2022/09/20 04:25:00;;;;;;;2.53;1.60;;;;;;;-148.22;100.00;64452.44;5013310;28;20042;-62
2022/09/20 04:27:30;;;;;;;6.72;2.10;;;;;;;-148.22;100.00;64452.44;5016447;28;20659;-64
2022/09/20 04:30:01;;;;;;;5.20;1.67;;;;;;;-148.22;100.00;64452.44;5024941;28;20071;-63
2022/09/20 04:32:30;;;;;;;8.00;2.45;;;;;;;-148.22;100.00;64452.44;5014586;28;20116;-63
2022/09/20 04:38:18;;;;;;;3.67;1.77;;;;;;;-148.22;100.00;64452.44;5025935;28;20146;-63
2022/09/20 04:40:57;;;;;;;6.60;1.90;;;;;;;-148.22;100.00;64452.44;5027391;28;20069;-62
2022/09/20 04:43:50;;;;;;;5.75;2.45;;;;;;;-148.22;100.00;64452.44;5041867;28;20059;-62
2022/09/20 04:46:41;;;;;;;3.92;1.80;;;;;;;-148.22;100.00;64452.44;5028343;28;20129;-61
2022/09/20 04:49:41;;;;;;;4.50;1.88;;;;;;;-148.22;100.00;64452.44;5016970;28;20042;-63
2022/09/20 04:52:37;;;;;;;7.28;2.00;;;;;;;-148.22;100.00;64452.44;5020691;28;20497;-62
2022/09/20 04:55:22;;;;;;;6.88;1.95;;;;;;;-148.22;100.00;64452.44;5018607;28;20065;-62
2022/09/20 04:58:09;;;;;;;4.88;2.33;;;;;;;-148.22;100.00;64452.44;5021027;28;20133;-61
2022/09/20 05:01:05;;;;;;;7.15;2.42;;;;;;;-148.22;100.00;64452.44;5026142;28;20121;-63
2022/09/20 05:03:34;;;;;;;4.95;2.13;;;;;;;-148.22;100.00;64452.44;5007123;28;20460;-63
2022/09/20 05:06:55;;;;;;;7.90;1.90;;;;;;;-148.22;100.00;64452.44;5012689;28;20056;-63
2022/09/20 05:09:39;;;;;;;6.15;2.08;;;;;;;-148.22;100.00;64452.44;5001263;28;20132;-61
2022/09/20 05:12:18;;;;;;;6.68;2.80;;;;;;;-148.22;100.00;64452.44;5023237;28;20047;-62
2022/09/20 05:15:13;;;;;;;5.35;2.30;;;;;;;-148.22;100.00;64452.44;5027199;28;20551;-63
2022/09/20 05:18:02;;;;;;;5.72;2.00;;;;;;;-148.22;100.00;64452.44;5030950;28;20103;-62
2022/09/20 05:20:49;;;;;;;5.45;2.20;;;;;;;-148.22;100.00;64452.44;5036594;28;20055;-62
2022/09/20 05:23:34;;;;;;;7.93;2.20;;;;;;;-148.22;100.00;64452.44;5024407;28;20113;-62
2022/09/20 05:26:01;;;;;;;7.80;2.70;;;;;;;-148.22;100.00;64452.44;5022731;28;20759;-62
2022/09/20 05:28:36;;;;;;;6.28;2.25;;;;;;;-148.22;100.00;64452.44;5027504;28;20049;-60
2022/09/20 05:31:14;;;;;;;7.45;1.88;;;;;;;-148.22;100.00;64452.44;5020106;28;20385;-64
2022/09/20 05:34:00;;;;;;;5.88;1.92;;;;;;;-148.22;100.00;64452.44;5038246;28;20080;-62
2022/09/20 05:36:58;;;;;;;12.98;8.68;;;;;;;-148.22;100.00;64452.44;5031123;28;20116;-63
2022/09/20 05:39:37;;;;;;;8.05;3.80;;;;;;;-148.22;100.00;64452.44;5025517;28;20041;-62
2022/09/20 05:42:33;;;;;;;66.88;32.85;;;;;;;-148.22;100.00;64452.44;5027760;28;20125;-62
2022/09/20 05:45:16;;;;;;;35.03;16.63;;;;;;;-148.22;100.00;64452.44;5035690;28;20538;-62
2022/09/20 05:47:54;;;;;;;16.27;8.18;;;;;;;-148.22;100.00;64452.44;5016122;28;20124;-63
2022/09/20 05:50:58;;;;;;;26.35;13.70;;;;;;;-148.22;100.00;64452.44;5025100;28;20480;-62
2022/09/20 05:53:56;;;;;;;50.95;29.48;;;;;;;-148.22;100.00;64452.44;5027611;28;20106;-61
2022/09/20 05:56:51;;;;;;;36.28;20.10;;;;;;;-148.22;100.00;64452.44;5026855;28;20043;-63
2022/09/20 05:59:51;;;;;;;36.00;18.20;;;;;;;-148.22;100.00;64452.44;5023145;28;20088;-62
2022/09/20 06:02:38;;;;;;;21.60;12.52;;;;;;;-148.22;100.00;64452.44;5010708;28;20050;-61
2022/09/20 06:05:21;;;;;;;36.28;24.75;;;;;;;-148.22;100.00;64452.44;5023563;28;20049;-61
2022/09/20 06:08:25;;;;;;;9.50;5.32;;;;;;;-148.22;100.00;64452.44;5029693;28;20047;-62
2022/09/20 06:10:57;;;;;;;10.30;2.65;;;;;;;-148.22;100.00;64452.44;5026114;28;20320;-61
2022/09/20 06:13:40;;;;;;;8.30;2.25;;;;;;;-148.22;100.00;64452.44;5033657;28;20114;-61
2022/09/20 06:16:15;;;;;;;6.18;2.85;;;;;;;-148.22;100.00;64452.44;5014022;28;20800;-63
2022/09/20 06:18:50;;;;;;;5.35;2.40;;;;;;;-148.22;100.00;64452.44;5023991;28;20146;-61
2022/09/20 06:21:41;;;;;;;8.10;2.50;;;;;;;-148.22;100.00;64452.44;5024576;28;20781;-63
2022/09/20 06:24:25;;;;;;;6.57;2.05;;;;;;;-148.22;100.00;64452.44;5011969;28;20052;-61
2022/09/20 06:26:55;;;;;;;6.93;1.90;;;;;;;-148.22;100.00;64452.44;5023749;28;20152;-61
2022/09/20 06:29:29;;;;;;;8.20;3.13;;;;;;;-148.22;100.00;64452.44;5034492;28;20550;-60
2022/09/20 06:31:55;;;;;;;8.43;3.22;;;;;;;-148.22;100.00;64452.44;5024716;28;20069;-61
2022/09/20 06:34:22;;;;;;;7.63;2.85;;;;;;;-148.22;100.00;64452.44;5026902;28;20124;-61
2022/09/20 06:43:02;;;;;;;8.63;2.25;;;;;;;-148.22;100.00;64452.44;5035583;28;20626;-61
2022/09/20 06:45:30;;;;;;;7.22;3.00;;;;;;;-148.22;100.00;64452.44;5042183;28;20092;-60
2022/09/20 06:47:59;;;;;;;11.15;3.42;;;;;;;-148.22;100.00;64452.44;5024881;28;20124;-61
2022/09/20 06:50:26;;;;;;;8.85;2.20;;;;;;;-148.22;100.00;64452.44;5023357;28;20041;-61
2022/09/20 06:52:53;;;;;;;;;;;;;;;-148.22;100.00;64452.44;5011316;28;20725;-61
2022/09/20 06:55:25;;;;;;;;;;;;;;;-148.22;100.00;64452.44;5025589;28;20380;-63
2022/09/20 06:57:54;;;;;;;;;;;;;;;-148.22;100.00;64452.44;5025641;28;19928;-60
2022/09/20 07:00:21;;;;;;;;;;;;;;;-148.22;100.00;64452.44;5025265;28;19956;-62
2022/09/20 07:02:47;;;;;;;;;;;;;;;-148.22;100.00;64452.44;5006427;28;19928;-60
2022/09/20 07:05:20;;;;;;;;;;;;;;;-148.22;100.00;64452.44;5023940;28;20011;-61
2022/09/20 07:07:47;;;;;;;;;;;;;;;-148.22;100.00;64452.44;5020908;28;19925;-62
2022/09/20 07:10:14;;;;;;;;;;;;;;;-148.22;100.00;64452.44;5029513;28;20545;-62
2022/09/20 07:12:40;;;;;;;;;;;;;;;-148.22;100.00;64452.44;5037667;28;20028;-61
2022/09/20 07:15:07;;;;;;;;;;;;;;;-148.22;100.00;64452.44;5025072;28;19925;-61
2022/09/20 07:17:34;;;;;;;;;;;;;;;-148.22;100.00;64452.44;5026010;28;19963;-62
2022/09/20 07:20:00;;;;;;;;;;;;;;;-148.22;100.00;64452.44;5027158;28;19925;-62
2022/09/20 07:22:27;;;;;;;;;;;;;;;-148.22;100.00;64452.44;5030486;28;20414;-63
2022/09/20 07:24:53;;;;;;;;;;;;;;;-148.22;100.00;64452.44;5036036;28;20319;-62
2022/09/20 07:27:21;;;;;;;;;;;;;;;-148.22;100.00;64452.44;5016385;28;19921;-62
2022/09/20 07:29:49;;;;;;;;;;;;;;;-148.22;100.00;64452.44;5032893;28;19929;-62
2022/09/20 07:32:16;;;;;;;;;;;;;;;-148.22;100.00;64452.44;5032668;28;19935;-62
2022/09/20 07:34:43;;;;;;;;;;;;;;;-148.22;100.00;64452.44;5030908;28;20331;-61
2022/09/20 07:37:10;;;;;;;;;;;;;;;-148.22;100.00;64452.44;5019814;28;19936;-62
2022/09/20 07:39:37;;;;;;;10.70;4.13;;;;;;;-148.22;100.00;64452.44;5023228;28;19955;-61
2022/09/20 07:42:05;;;;;;;11.15;4.40;;;;;;;-148.22;100.00;64452.44;5033462;28;20045;-62
2022/09/20 07:44:31;;;;;;;12.20;4.30;;;;;;;-148.22;100.00;64452.44;5026834;28;20069;-61
2022/09/20 07:46:59;;;;;;;13.48;4.53;;;;;;;-148.22;100.00;64452.44;5022715;28;20049;-62
2022/09/20 07:49:30;;;;;;;13.70;4.95;;;;;;;-148.22;100.00;64452.44;5028016;28;20046;-61
2022/09/20 07:51:57;;;;;;;11.90;4.20;;;;;;;-148.22;100.00;64452.44;5031754;28;20045;-62
2022/09/20 07:54:26;;;;;;;9.85;3.25;;;;;;;-148.22;100.00;64452.44;5026301;28;20327;-61
2022/09/20 07:56:53;;;;;;;14.38;3.38;;;;;;;-148.22;100.00;64452.44;5020733;28;20524;-58
2022/09/20 07:59:19;;;;;;;9.90;2.65;;;;;;;-148.22;100.00;64452.44;5023437;28;20084;-61
2022/09/20 08:01:46;;;;;;;10.15;3.30;;;;;;;-148.22;100.00;64452.44;5022673;28;20080;-61
2022/09/20 08:04:13;;;;;;;10.45;3.47;;;;;;;-148.22;100.00;64452.44;5025905;28;20119;-60
2022/09/20 08:06:42;;;;;;;7.95;2.35;;;;;;;-148.22;100.00;64452.44;5027494;28;20056;-61
2022/09/20 08:09:10;;;;;;;5.57;2.20;;;;;;;-148.22;100.00;64452.44;5043436;28;20049;-59
2022/09/20 08:11:38;;;;;;;10.05;2.00;;;;;;;-148.22;100.00;64452.44;5026796;28;20132;-61
2022/09/20 08:14:06;;;;;;;7.68;2.10;;;;;;;-148.22;100.00;64452.44;5028207;28;20216;-61
2022/09/20 08:16:48;;;;;;;8.82;2.67;;;;;;;-148.22;100.00;64452.44;5025572;28;20504;-60
2022/09/20 08:19:20;;;;;;;9.98;2.53;;;;;;;-148.22;100.00;64452.44;5029648;28;20076;-61
2022/09/20 08:21:48;;;;;;;8.15;1.75;;;;;;;-148.22;100.00;64452.44;5029326;28;20553;-61
2022/09/20 08:24:16;;;;;;;5.22;1.55;;;;;;;-148.22;100.00;64452.44;5026901;28;20082;-61
2022/09/20 08:26:42;;;;;;;9.82;1.80;;;;;;;-148.22;100.00;64452.44;5027028;28;20242;-61
2022/09/20 08:29:10;;;;;;;9.02;1.30;;;;;;;-148.22;100.00;64452.44;5027181;28;20179;-62
2022/09/20 08:31:39;;;;;;;6.18;1.42;;;;;;;-148.22;100.00;64452.44;5027914;28;20056;-62
2022/09/20 08:34:08;;;;;;;8.13;1.70;;;;;;;-148.22;100.00;64452.44;5031675;28;20083;-61
2022/09/20 08:36:39;;;;;;;6.82;1.88;;;;;;;-148.22;100.00;64452.44;5025436;28;20114;-62
2022/09/20 08:39:07;;;;;;;5.47;1.88;;;;;;;-148.22;100.00;64452.44;5037696;28;20451;-65
2022/09/20 08:41:59;;;;;;;8.25;1.55;;;;;;;-148.22;100.00;64452.44;5015911;28;20045;-64
2022/09/20 08:44:35;;;;;;;7.88;2.70;;;;;;;-148.22;100.00;64452.44;5027267;28;20128;-63
2022/09/20 08:47:05;;;;;;;6.70;1.80;;;;;;;-148.22;100.00;64452.44;5023887;28;20124;-64
2022/09/20 08:49:32;;;;;;;7.88;1.50;;;;;;;-148.22;100.00;64452.44;5030427;28;20136;-65
2022/09/20 08:52:01;;;;;;;7.00;1.98;;;;;;;-148.22;100.00;64452.44;5040437;28;20155;-65
2022/09/20 08:54:31;;;;;;;5.78;1.45;;;;;;;-148.22;100.00;64452.44;5031809;28;20136;-63
2022/09/20 08:57:08;;;;;;;5.87;1.83;;;;;;;-148.22;100.00;64452.44;5029689;28;20041;-64
2022/09/20 08:59:34;;;;;;;4.50;1.13;;;;;;;-148.22;100.00;64452.44;5035501;28;20072;-64
2022/09/20 09:02:01;;;;;;;5.47;1.58;;;;;;;-148.22;100.00;64452.44;5028373;28;20052;-64
2022/09/20 09:04:35;;;;;;;2.90;1.00;;;;;;;-148.22;100.00;64452.44;5036726;28;20049;-64
2022/09/20 09:07:03;;;;;;;7.30;1.50;;;;;;;-148.22;100.00;64452.44;5038728;28;20033;-62
2022/09/20 09:09:33;;;;;;;6.95;1.52;;;;;;;-148.22;100.00;64452.44;5030882;28;20044;-63
2022/09/20 09:12:03;;;;;;;8.38;2.05;;;;;;;-148.22;100.00;64452.44;5013908;28;20037;-64
2022/09/20 09:14:53;;;;;;;6.47;1.23;;;;;;;-148.22;100.00;64452.44;5023824;28;20179;-64
2022/09/20 09:17:23;;;;;;;7.65;1.30;;;;;;;-148.22;100.00;64452.44;5023001;28;20616;-63
2022/09/20 09:19:56;;;;;;;6.28;1.35;;;;;;;-148.22;100.00;64452.44;5022852;28;20064;-63
2022/09/20 09:22:31;;;;;;;4.28;1.20;;;;;;;-148.22;100.00;64452.44;5025388;28;20131;-61
2022/09/20 09:25:33;;;;;;;5.00;1.10;;;;;;;-148.22;100.00;64452.44;5026746;28;20128;-63
2022/09/20 09:28:01;;;;;;;6.68;1.63;;;;;;;-148.22;100.00;64452.44;5023435;28;20424;-62
2022/09/20 09:30:29;;;;;;;6.78;1.50;;;;;;;-148.22;100.00;64452.44;5014814;28;20046;-63
2022/09/20 09:33:16;;;;;;;6.90;1.88;;;;;;;-148.22;100.00;64452.44;5015857;28;20639;-64
2022/09/20 09:35:44;;;;;;;5.15;1.30;;;;;;;-148.22;100.00;64452.44;5026416;28;20050;-63
2022/09/20 09:38:18;;;;;;;7.32;1.58;;;;;;;-148.22;100.00;64452.44;5025664;28;20055;-62
2022/09/20 09:40:50;;;;;;;4.55;1.05;;;;;;;-148.22;100.00;64452.44;5011843;28;20049;-63
2022/09/20 09:43:25;;;;;;;4.93;1.05;;;;;;;-148.22;100.00;64452.44;5035193;28;20044;-64
2022/09/20 09:45:53;;;;;;;5.80;1.40;;;;;;;-148.22;100.00;64452.44;5042919;28;20716;-63
2022/09/20 09:48:28;;;;;;;7.07;1.23;;;;;;;-148.22;100.00;64452.44;5036436;28;20040;-63
2022/09/20 09:51:14;;;;;;;6.10;1.70;;;;;;;-148.22;100.00;64452.44;5030483;28;20055;-62
2022/09/20 09:53:42;;;;;;;4.18;1.00;;;;;;;-148.22;100.00;64452.44;5026986;28;20602;-61
2022/09/20 09:56:38;;;;;;;5.07;0.95;;;;;;;-148.22;100.00;64452.44;5035083;28;20045;-63
2022/09/20 09:59:50;;;;;;;7.22;1.23;;;;;;;-148.22;100.00;64452.44;5014298;28;20107;-63
2022/09/20 10:02:22;;;;;;;3.92;1.25;;;;;;;-148.22;100.00;64452.44;5024766;28;20120;-62
2022/09/20 10:05:10;;;;;;;5.72;1.25;;;;;;;-148.22;100.00;64452.44;5039637;28;20074;-63
2022/09/20 10:07:42;;;;;;;4.30;1.05;;;;;;;-148.22;100.00;64452.44;5031743;28;20065;-61
2022/09/20 10:10:28;;;;;;;4.35;1.23;;;;;;;-148.22;100.00;64452.44;5019771;28;20049;-61
2022/09/20 10:12:54;;;;;;;6.50;1.40;;;;;;;-148.22;100.00;64452.44;5019987;28;20124;-63
2022/09/20 10:15:27;;;;;;;4.82;1.30;;;;;;;-148.22;100.00;64452.44;5016668;28;20052;-60
2022/09/20 10:18:31;;;;;;;7.40;1.55;;;;;;;-148.22;100.00;64452.44;5008920;28;20125;-64
2022/09/20 10:21:16;;;;;;;7.32;1.30;;;;;;;-148.22;100.00;64452.44;5044649;28;20794;-63
2022/09/20 10:24:13;;;;;;;5.30;1.75;;;;;;;-148.22;100.00;64452.44;5014552;28;20125;-65
2022/09/20 10:26:40;;;;;;;4.80;1.15;;;;;;;-148.22;100.00;64452.44;5007473;28;20239;-66
2022/09/20 10:29:31;;;;;;;5.05;1.20;;;;;;;-148.22;100.00;64452.44;5016806;28;20054;-65
2022/09/20 10:32:16;;;;;;;5.30;1.20;;;;;;;-148.22;100.00;64452.44;5023339;28;20045;-63
2022/09/20 10:35:24;;;;;;;7.82;1.10;;;;;;;-148.22;100.00;64452.44;5020040;28;20053;-62
2022/09/20 10:38:04;;;;;;;6.32;1.33;;;;;;;-148.22;100.00;64452.44;5001332;28;20061;-64
2022/09/20 10:43:37;;;;;;;5.25;1.27;;;;;;;-148.22;100.00;64452.44;5018971;28;20049;-63
2022/09/20 10:46:30;;;;;;;5.45;1.40;;;;;;;-148.22;100.00;64452.44;5038430;28;20037;-65
2022/09/20 10:49:12;;;;;;;4.93;1.58;;;;;;;-148.22;100.00;64452.44;5018905;28;20440;-63
2022/09/20 10:51:47;;;;;;;5.93;1.42;;;;;;;-148.22;100.00;64452.44;5026078;28;20060;-64
2022/09/20 10:54:25;;;;;;;6.82;1.25;;;;;;;-148.22;100.00;64452.44;5017119;28;20073;-63
2022/09/20 10:57:17;;;;;;;3.15;0.90;;;;;;;-148.22;100.00;64452.44;5023437;28;20042;-64
2022/09/20 11:00:16;;;;;;;4.85;1.10;;;;;;;-148.22;100.00;64452.44;5022785;28;20712;-63
2022/09/20 11:03:00;;;;;;;5.20;1.23;;;;;;;-148.22;100.00;64452.44;5015668;28;20045;-63
2022/09/20 11:06:05;;;;;;;6.28;1.35;;;;;;;-148.22;100.00;64452.44;5017497;28;20107;-64
2022/09/20 11:08:34;;;;;;;6.07;1.90;;;;;;;-148.22;100.00;64452.44;5011016;28;20068;-64
2022/09/20 11:11:24;;;;;;;5.93;1.30;;;;;;;-148.22;100.00;64452.44;5022205;28;20069;-64
2022/09/20 11:14:06;;;;;;;3.58;1.25;;;;;;;-148.22;100.00;64452.44;5014779;28;20647;-64
2022/09/20 11:16:46;;;;;;;4.72;1.42;;;;;;;-148.22;100.00;64452.44;5038099;28;20048;-63
2022/09/20 11:19:30;;;;;;;4.15;1.45;;;;;;;-148.22;100.00;64452.44;5029818;28;20405;-64
2022/09/20 11:22:01;;;;;;;3.80;1.20;;;;;;;-148.22;100.00;64452.44;5021551;28;20049;-61
2022/09/20 11:24:37;;;;;;;3.85;1.40;;;;;;;-148.22;100.00;64452.44;5028256;28;20124;-64
2022/09/20 11:27:17;;;;;;;5.07;1.20;;;;;;;-148.22;100.00;64452.44;5039927;28;20044;-63
2022/09/20 11:29:49;;;;;;;4.07;1.05;;;;;;;-148.22;100.00;64452.44;5029742;28;20053;-63
2022/09/20 11:32:44;;;;;;;5.88;1.30;;;;;;;-148.22;100.00;64452.44;5015776;28;20037;-62
2022/09/20 11:35:10;;;;;;;4.07;1.20;;;;;;;-148.22;100.00;64452.44;5014335;28;20059;-59
2022/09/20 11:37:43;;;;;;;9.13;2.20;;;;;;;-148.22;100.00;64452.44;5012518;28;20648;-59
2022/09/20 11:40:30;;;;;;;7.78;1.83;;;;;;;-148.22;100.00;64452.44;5024591;28;20588;-63
2022/09/20 11:43:00;;;;;;;6.68;1.80;;;;;;;-148.22;100.00;64452.44;5031643;28;20670;-62
2022/09/20 11:45:28;;;;;;;5.13;1.42;;;;;;;-148.22;100.00;64452.44;5019508;28;20509;-64
2022/09/20 11:48:25;;;;;;;5.43;1.30;;;;;;;-148.22;100.00;64452.44;5023973;28;20716;-64
2022/09/20 11:51:10;;;;;;;5.32;1.25;;;;;;;-148.22;100.00;64452.44;5021430;28;20691;-62
2022/09/20 11:54:09;;;;;;;7.63;1.60;;;;;;;-148.22;100.00;64452.44;5027419;28;20520;-61
2022/09/20 11:56:36;;;;;;;6.03;1.15;;;;;;;-148.22;100.00;64452.44;5028216;28;20116;-64
2022/09/20 11:59:20;;;;;;;4.72;1.20;;;;;;;-148.22;100.00;64452.44;5022012;28;20056;-61
2022/09/20 12:01:47;;;;;;;4.97;1.20;;;;;;;-148.22;100.00;64452.44;5021003;28;20041;-62
2022/09/20 12:04:16;;;;;;;3.85;1.30;;;;;;;-148.22;100.00;64452.44;5030285;28;20389;-63
2022/09/20 12:07:15;;;;;;;2.95;1.35;;;;;;;-148.22;100.00;64452.44;5039458;28;20044;-64
2022/09/20 12:10:03;;;;;;;5.80;1.20;;;;;;;-148.22;100.00;64452.44;5016393;28;20059;-63
2022/09/20 12:12:30;;;;;;;4.72;1.20;;;;;;;-148.22;100.00;64452.44;5030957;28;20882;-63
2022/09/20 12:14:59;;;;;;;6.55;1.20;;;;;;;-148.22;100.00;64452.44;5026705;28;20045;-63
2022/09/20 12:17:44;;;;;;;4.30;1.35;;;;;;;-148.22;100.00;64452.44;5031822;28;20418;-64
2022/09/20 12:20:37;;;;;;;3.55;1.20;;;;;;;-148.22;100.00;64452.44;5026815;28;20112;-62
2022/09/20 12:23:44;;;;;;;6.80;1.20;;;;;;;-148.22;100.00;64452.44;5029307;28;20071;-64
2022/09/20 12:26:31;;;;;;;3.95;1.10;;;;;;;-148.22;100.00;64452.44;5024761;28;20048;-62
2022/09/20 12:29:00;;;;;;;2.92;1.08;;;;;;;-148.22;100.00;64452.44;5040695;28;20686;-63